Time;durP1;ratioP1;P1;durP2;ratioP2;P2;SDS_P1;SDS_P2;PMS_P1;PMS_P2;Temp;Humidity;BMP_temperature;BMP_pressure;BME280_temperature;BME280_humidity;BME280_pressure;Samples;Min_cycle;Max_cycle;Signal;HPM_P1;HPM_P2
2022/02/09 00:02:34;;;;;;;15.35;12.18;;;;;;;8.20;100.00;101809.13;4994160;28;20056;-87
2022/02/09 00:05:17;;;;;;;17.08;11.52;;;;;;;8.14;100.00;101822.06;5018030;28;20048;-86
2022/02/09 00:07:51;;;;;;;14.18;9.93;;;;;;;8.05;100.00;101823.63;5030051;28;20048;-85
2022/02/09 00:10:18;;;;;;;13.68;10.05;;;;;;;7.99;100.00;101813.09;5032309;28;20112;-87
2022/02/09 00:12:49;;;;;;;13.57;9.73;;;;;;;7.94;100.00;101807.78;5010877;28;20076;-87
2022/02/09 00:15:28;;;;;;;16.30;10.93;;;;;;;7.89;100.00;101804.19;5019578;28;20057;-87
2022/02/09 00:18:04;;;;;;;16.17;10.77;;;;;;;7.85;100.00;101802.38;5018405;28;20044;-85
2022/02/09 00:42:44;;;;;;;8.30;7.40;;;;;;;8.36;96.33;101807.72;5113842;27;20043;-84
2022/02/09 01:40:09;;;;;;;13.23;8.77;;;;;;;8.48;91.81;101831.44;5126525;27;20026;-83
2022/02/09 01:51:15;;;;;;;14.25;9.30;;;;;;;8.49;91.60;101820.16;5088400;27;20049;-84
2022/02/09 01:56:31;;;;;;;14.63;8.68;;;;;;;8.48;92.05;101805.34;5102461;27;20043;-84
2022/02/09 01:58:58;;;;;;;16.08;10.40;;;;;;;8.48;91.98;101820.16;5108278;27;20460;-87
2022/02/09 02:01:26;;;;;;;13.18;9.70;;;;;;;8.47;91.84;101819.25;5099725;27;20169;-83
2022/02/09 02:03:54;;;;;;;15.48;10.90;;;;;;;8.42;91.94;101811.31;5083869;27;20051;-86
2022/02/09 02:06:24;;;;;;;16.05;10.73;;;;;;;8.42;92.67;101815.63;5104971;27;20051;-84
2022/02/09 02:08:52;;;;;;;12.15;9.00;;;;;;;8.39;92.85;101810.38;5103937;27;20672;-83
2022/02/09 02:11:25;;;;;;;13.70;9.30;;;;;;;8.41;92.78;101819.13;5107668;27;20054;-82
2022/02/09 02:14:08;;;;;;;15.05;9.38;;;;;;;8.39;92.87;101820.81;5076497;27;20043;-83
2022/02/09 02:16:38;;;;;;;13.95;10.52;;;;;;;8.37;93.05;101819.88;5105095;27;20169;-82
2022/02/09 02:19:07;;;;;;;10.85;8.65;;;;;;;8.34;93.25;101797.22;5115585;27;20106;-86
2022/02/09 02:30:29;;;;;;;14.38;9.20;;;;;;;8.34;92.50;101780.69;5115915;27;20059;-85
2022/02/09 02:33:12;;;;;;;12.07;7.97;;;;;;;8.30;93.00;101768.47;5114573;27;20038;-83
2022/02/09 02:42:40;;;;;;;10.57;8.32;;;;;;;8.28;92.16;101782.34;5045096;28;20045;-84
2022/02/09 03:09:52;;;;;;;11.40;6.40;;;;;;;8.35;90.24;101762.47;5123540;27;20150;-83
2022/02/09 03:12:31;;;;;;;7.10;5.47;;;;;;;8.36;89.86;101748.56;5125190;27;20035;-85
2022/02/09 03:15:09;;;;;;;7.32;5.95;;;;;;;8.35;89.70;101756.38;5101951;27;20042;-85
2022/02/09 03:17:39;;;;;;;9.93;5.60;;;;;;;8.35;88.57;101749.41;5122711;27;20112;-83
2022/02/09 03:20:19;;;;;;;7.65;5.40;;;;;;;8.39;88.73;101752.97;5097149;27;20058;-84
2022/02/09 03:22:54;;;;;;;8.85;5.50;;;;;;;8.39;88.61;101752.97;5132838;27;20035;-87
2022/02/09 03:31:04;;;;;;;8.82;4.80;;;;;;;8.33;88.67;101753.75;5121396;27;20034;-86
2022/02/09 03:50:19;;;;;;;5.03;4.55;;;;;;;8.28;87.20;101744.97;5093137;27;20061;-86
2022/02/09 03:55:37;;;;;;;5.97;4.47;;;;;;;8.27;87.06;101749.28;5097842;27;20050;-84
2022/02/09 03:58:04;;;;;;;6.68;4.15;;;;;;;8.28;87.02;101744.97;5105489;27;20408;-87
2022/02/09 04:00:35;;;;;;;5.72;4.28;;;;;;;8.26;86.89;101752.72;5091276;27;20520;-86
2022/02/09 04:03:05;;;;;;;5.95;3.70;;;;;;;8.27;86.57;101751.88;5131270;27;20886;-85
2022/02/09 04:05:33;;;;;;;7.75;4.55;;;;;;;8.25;87.10;101737.06;5094504;27;20751;-84
2022/02/09 04:08:01;;;;;;;3.55;3.25;;;;;;;8.26;87.04;101736.22;5103427;27;20481;-83
2022/02/09 04:10:36;;;;;;;6.85;4.00;;;;;;;8.22;86.80;101732.66;5117930;27;20046;-83
2022/02/09 04:13:12;;;;;;;4.95;4.32;;;;;;;8.23;86.77;101728.34;5110288;27;20066;-86
2022/02/09 04:15:50;;;;;;;4.60;3.67;;;;;;;8.22;86.19;101724.84;5096597;27;20138;-83
2022/02/09 04:18:30;;;;;;;5.00;4.40;;;;;;;8.22;85.96;101729.19;5090538;27;20026;-83
2022/02/09 04:37:42;;;;;;;3.95;3.60;;;;;;;8.16;86.15;101716.94;5107184;27;20050;-85
2022/02/09 04:40:16;;;;;;;5.03;3.92;;;;;;;8.18;85.83;101706.50;5097699;27;20050;-84
2022/02/09 04:43:04;;;;;;;8.88;4.88;;;;;;;8.19;86.03;101711.75;5086671;27;22035;-85
2022/02/09 04:48:35;;;;;;;4.57;4.15;;;;;;;8.18;86.35;101703.91;5106899;27;20561;-84
2022/02/09 04:51:16;;;;;;;5.88;4.28;;;;;;;8.15;86.33;101696.91;5101103;27;20050;-86
2022/02/09 04:56:38;;;;;;;4.22;3.83;;;;;;;8.14;86.79;101700.34;5105518;27;20039;-84
2022/02/09 04:59:14;;;;;;;4.03;3.72;;;;;;;8.12;87.03;101696.81;5105611;27;20046;-85
2022/02/09 05:04:46;;;;;;;3.95;3.65;;;;;;;8.12;86.99;101694.22;5096273;27;21835;-87
2022/02/09 05:18:26;;;;;;;;;;;;;;;8.12;86.14;101694.22;5090656;27;20073;-85
2022/02/09 05:21:23;;;;;;;4.03;3.20;;;;;;;8.13;85.67;101682.09;5098437;27;19933;-85
2022/02/09 05:24:03;;;;;;;5.55;3.67;;;;;;;8.15;85.06;101683.88;5089064;27;20046;-85
2022/02/09 05:26:40;;;;;;;3.72;2.78;;;;;;;8.14;84.95;101689.06;5111421;27;20051;-85
2022/02/09 05:29:07;;;;;;;7.60;2.70;;;;;;;8.15;85.00;101691.69;5106889;27;20161;-84
2022/02/09 05:31:34;;;;;;;4.57;3.15;;;;;;;8.18;84.35;101683.91;5073193;27;20436;-86
2022/02/09 05:34:05;;;;;;;3.20;3.00;;;;;;;8.20;84.28;101684.81;5094829;27;20127;-84
2022/02/09 05:36:31;;;;;;;5.80;3.20;;;;;;;8.21;84.57;101691.81;5098673;27;20031;-85
2022/02/09 05:38:58;;;;;;;3.65;3.25;;;;;;;8.24;84.54;101693.59;5084032;28;20405;-85
2022/02/09 05:41:26;;;;;;;7.30;3.55;;;;;;;8.22;85.11;101690.94;5076579;28;20130;-84
2022/02/09 05:43:52;;;;;;;4.63;4.13;;;;;;;8.18;85.43;101688.25;5071154;28;20044;-86
2022/02/09 05:51:51;;;;;;;5.75;4.32;;;;;;;8.18;87.39;101701.31;5088842;28;20047;-85
2022/02/09 05:54:39;;;;;;;3.95;3.50;;;;;;;8.15;88.44;101694.28;5086078;27;20047;-85
2022/02/09 05:57:23;;;;;;;4.18;3.63;;;;;;;8.13;89.01;101703.81;5070050;28;20051;-85
2022/02/09 05:59:50;;;;;;;5.30;4.05;;;;;;;8.13;89.55;101702.94;5091043;27;20829;-84
2022/02/09 06:02:21;;;;;;;4.78;3.90;;;;;;;8.05;91.99;101711.50;5087380;27;20051;-84
2022/02/09 06:04:48;;;;;;;5.05;4.55;;;;;;;7.97;93.12;101702.66;5093320;27;20154;-86
2022/02/09 06:07:20;;;;;;;5.13;4.63;;;;;;;7.91;94.14;101702.53;5083549;27;20051;-85
2022/02/09 06:09:48;;;;;;;9.05;5.07;;;;;;;7.87;94.24;101700.72;5093247;28;20048;-86
2022/02/09 06:12:27;;;;;;;5.05;4.43;;;;;;;7.84;94.28;101695.47;5082419;27;20050;-86
2022/02/09 06:20:21;;;;;;;7.18;4.00;;;;;;;7.85;92.97;101700.69;5089032;28;20395;-87
2022/02/09 06:22:48;;;;;;;4.22;3.83;;;;;;;7.85;92.86;101697.19;5093710;27;20028;-86
2022/02/09 06:25:14;;;;;;;4.55;4.05;;;;;;;7.84;92.86;101691.13;5111914;28;20095;-86
2022/02/09 06:27:41;;;;;;;4.20;3.80;;;;;;;7.87;91.74;101701.59;5111166;27;20089;-86
2022/02/09 06:30:09;;;;;;;4.63;3.08;;;;;;;7.86;91.90;101699.84;5114373;28;20048;-87
2022/02/09 06:32:36;;;;;;;3.67;3.40;;;;;;;7.88;91.90;101692.06;5092429;27;20046;-86
2022/02/09 06:35:03;;;;;;;3.60;3.10;;;;;;;7.88;91.68;101689.44;5094288;28;20401;-87
2022/02/09 06:37:39;;;;;;;6.53;3.97;;;;;;;7.90;90.98;101691.25;5099987;27;20047;-87
2022/02/09 06:40:06;;;;;;;4.63;3.70;;;;;;;7.90;90.92;101691.25;5076511;27;20079;-86
2022/02/09 06:42:34;;;;;;;3.58;3.28;;;;;;;7.93;91.27;101690.41;5074146;27;20055;-87
2022/02/09 06:45:10;;;;;;;7.70;4.63;;;;;;;7.92;91.50;101689.53;5096777;27;20058;-86
2022/02/09 06:47:38;;;;;;;7.30;3.80;;;;;;;7.92;91.36;101683.44;5093603;27;20044;-84
2022/02/09 06:50:09;;;;;;;4.28;3.50;;;;;;;7.93;91.00;101685.22;5099076;27;20430;-85
2022/02/09 06:52:39;;;;;;;4.00;2.88;;;;;;;7.94;90.76;101692.19;5084024;27;20047;-85
2022/02/09 06:55:13;;;;;;;3.45;3.25;;;;;;;7.94;90.62;101682.63;5095476;27;20813;-87
2022/02/09 07:00:30;;;;;;;4.00;3.00;;;;;;;7.95;89.78;101681.78;5109503;27;20059;-88
2022/02/09 07:02:57;;;;;;;4.18;2.78;;;;;;;7.95;89.02;101688.69;5098460;27;20153;-85
2022/02/09 07:05:23;;;;;;;4.88;3.15;;;;;;;8.00;89.18;101679.22;5113649;27;20054;-85
2022/02/09 07:07:50;;;;;;;3.15;2.47;;;;;;;8.00;88.69;101684.44;5129778;27;20046;-87
2022/02/09 07:10:17;;;;;;;7.07;2.78;;;;;;;7.98;88.79;101680.97;5092088;27;20038;-86
2022/02/09 07:12:44;;;;;;;4.72;2.40;;;;;;;7.98;88.84;101664.41;5095786;27;20046;-82
2022/02/09 07:15:16;;;;;;;4.65;2.67;;;;;;;8.00;88.60;101673.16;5109656;27;20043;-87
2022/02/09 07:17:44;;;;;;;4.32;3.08;;;;;;;7.99;88.60;101669.69;5103607;27;20160;-85
2022/02/09 07:20:24;;;;;;;3.42;2.80;;;;;;;7.97;89.05;101673.97;5093649;27;20075;-86
2022/02/09 07:22:54;;;;;;;2.30;2.20;;;;;;;7.99;87.88;101681.81;5083075;27;20050;-83
2022/02/09 07:25:30;;;;;;;3.30;2.33;;;;;;;7.98;88.54;101672.22;5086331;27;20543;-84
2022/02/09 07:27:58;;;;;;;5.65;2.55;;;;;;;8.00;88.62;101683.59;5078655;27;20051;-84
2022/02/09 07:30:28;;;;;;;4.00;2.28;;;;;;;8.01;88.95;101674.91;5096723;27;20054;-86
2022/02/09 07:33:04;;;;;;;5.70;2.67;;;;;;;8.03;88.84;101681.03;5083948;27;20058;-85
2022/02/09 07:35:38;;;;;;;3.78;2.92;;;;;;;8.03;88.96;101679.31;5113207;27;20507;-86
2022/02/09 07:38:05;;;;;;;4.55;2.55;;;;;;;8.04;89.12;101678.44;5090348;27;20125;-86
2022/02/09 07:40:32;;;;;;;5.18;3.58;;;;;;;8.04;89.24;101680.19;5104268;27;20065;-85
2022/02/09 07:43:04;;;;;;;3.83;3.17;;;;;;;8.09;89.35;101675.94;5102453;27;20054;-86
2022/02/09 07:46:03;;;;;;;3.40;3.10;;;;;;;8.09;89.76;101674.19;5091321;27;20051;-87
2022/02/09 07:48:53;;;;;;;4.97;3.28;;;;;;;8.09;89.89;101681.13;5096457;27;20051;-86
2022/02/09 07:51:39;;;;;;;4.05;3.25;;;;;;;8.07;90.49;101670.69;5101617;27;20066;-86
2022/02/09 07:54:08;;;;;;;3.95;3.65;;;;;;;8.09;90.74;101681.13;5085285;27;20135;-87
2022/02/09 07:56:43;;;;;;;5.18;3.38;;;;;;;8.14;90.64;101676.88;5101916;27;20043;-85
2022/02/09 07:59:13;;;;;;;3.88;3.33;;;;;;;8.14;90.80;101676.88;5093869;27;20053;-86
2022/02/09 08:01:44;;;;;;;5.00;3.53;;;;;;;8.15;90.96;101680.34;5085285;27;20058;-85
2022/02/09 08:04:17;;;;;;;6.95;3.35;;;;;;;8.19;91.13;101670.03;5097603;27;20401;-88
2022/02/09 08:06:45;;;;;;;3.97;3.60;;;;;;;8.21;91.23;101681.38;5088070;27;20554;-85
2022/02/09 08:09:21;;;;;;;5.63;3.83;;;;;;;8.20;91.53;101673.50;5084179;27;20036;-84
2022/02/09 08:12:01;;;;;;;5.68;3.85;;;;;;;8.21;91.83;101677.88;5086282;27;20431;-87
2022/02/09 08:28:44;;;;;;;2.70;2.50;;;;;;;8.26;93.09;101671.00;5081670;27;20935;-86
2022/02/09 08:31:45;;;;;;;2.80;2.60;;;;;;;8.14;96.91;101670.81;5121349;27;20043;-83
2022/02/09 08:34:17;;;;;;;2.83;2.63;;;;;;;7.82;100.00;101663.25;5112640;27;20376;-86
2022/02/09 08:36:46;;;;;;;3.55;3.25;;;;;;;7.65;100.00;101670.75;5092191;27;20047;-85
2022/02/09 08:39:17;;;;;;;4.43;3.78;;;;;;;7.46;100.00;101659.97;5093479;27;20047;-87
2022/02/09 08:41:44;;;;;;;3.60;3.30;;;;;;;7.38;100.00;101666.75;5087610;27;20166;-87
2022/02/09 08:44:12;;;;;;;6.65;3.75;;;;;;;7.34;100.00;101667.53;5098947;27;20054;-84
2022/02/09 08:46:41;;;;;;;4.45;4.05;;;;;;;7.31;100.00;101664.88;5091818;27;20039;-84
2022/02/09 08:49:09;;;;;;;5.78;4.47;;;;;;;7.33;100.00;101652.78;5094274;27;20138;-84
2022/02/09 08:51:35;;;;;;;4.18;3.85;;;;;;;7.37;100.00;101654.59;5098876;27;20463;-86
2022/02/09 08:54:05;;;;;;;3.60;3.40;;;;;;;7.40;100.00;101655.50;5078758;27;20055;-86
2022/02/09 08:56:38;;;;;;;4.10;3.70;;;;;;;7.40;100.00;101658.09;5099650;27;20058;-84
2022/02/09 08:59:07;;;;;;;4.32;3.40;;;;;;;7.41;100.00;101654.66;5064112;28;20066;-86
2022/02/09 09:01:38;;;;;;;4.40;3.92;;;;;;;7.42;100.00;101658.16;5097514;27;20057;-87
2022/02/09 09:04:18;;;;;;;4.45;4.05;;;;;;;7.47;100.00;101661.75;5067603;27;20055;-88
2022/02/09 09:06:52;;;;;;;3.70;3.38;;;;;;;7.47;100.00;101659.13;5097320;27;20042;-85
2022/02/09 09:09:38;;;;;;;;;;;;;;;7.50;100.00;101656.59;5115015;27;20185;-87
2022/02/09 10:00:02;;;;;;;3.63;3.30;;;;;;;7.62;100.00;101648.13;5083103;27;20069;-85
2022/02/09 10:34:28;;;;;;;4.40;3.30;;;;;;;8.20;99.88;101648.31;5079069;27;20043;-87
2022/02/09 10:37:02;;;;;;;2.97;2.78;;;;;;;8.31;98.15;101650.22;5107758;27;20522;-87
2022/02/09 10:39:44;;;;;;;4.47;3.13;;;;;;;8.44;97.82;101652.16;5118451;27;20051;-88
2022/02/09 10:42:15;;;;;;;3.65;3.22;;;;;;;8.53;96.97;101643.66;5137146;27;20031;-86
2022/02/09 10:44:51;;;;;;;2.20;2.10;;;;;;;8.60;94.98;101643.75;5118702;27;20057;-88
2022/02/09 10:47:35;;;;;;;3.17;2.97;;;;;;;8.59;95.32;101646.31;5133411;27;20034;-86
2022/02/09 10:50:39;;;;;;;;;;;;;;;8.60;95.23;101656.81;5137431;27;20688;-88
2022/02/09 10:53:12;;;;;;;2.60;2.40;;;;;;;8.55;95.79;101647.13;5143515;27;19947;-82
2022/02/09 10:55:47;;;;;;;3.47;2.42;;;;;;;8.47;96.27;101644.41;5108305;27;20043;-84
2022/02/09 10:58:21;;;;;;;2.72;2.53;;;;;;;8.39;96.79;101643.38;5111571;27;20070;-86
2022/02/09 11:00:49;;;;;;;3.08;2.88;;;;;;;8.34;97.16;101642.44;5103636;27;20047;-84
2022/02/09 11:03:21;;;;;;;2.70;2.45;;;;;;;8.32;97.36;101642.41;5092352;27;20047;-83
2022/02/09 11:05:55;;;;;;;2.35;2.25;;;;;;;8.31;96.98;101631.97;5102308;27;20491;-84
2022/02/09 11:08:23;;;;;;;2.50;2.30;;;;;;;8.35;97.21;101642.44;5119736;27;20235;-86
2022/02/09 11:10:50;;;;;;;2.20;2.13;;;;;;;8.35;96.73;101632.00;5122700;27;20057;-85
2022/02/09 11:13:17;;;;;;;2.10;2.00;;;;;;;8.37;96.87;101629.41;5129076;27;20051;-85
2022/02/09 11:15:57;;;;;;;2.30;2.20;;;;;;;8.38;97.12;101621.66;5108630;27;20046;-86
2022/02/09 11:18:26;;;;;;;2.63;2.42;;;;;;;8.44;96.69;101629.53;5133853;27;20124;-84
2022/02/09 11:21:12;;;;;;;2.63;2.42;;;;;;;8.57;95.91;101624.56;5100216;27;20053;-85
2022/02/09 11:23:46;;;;;;;2.65;2.15;;;;;;;8.66;93.71;101624.69;5093991;27;20043;-84
2022/02/09 11:26:41;;;;;;;2.15;1.92;;;;;;;8.73;93.29;101629.13;5118292;27;20047;-85
2022/02/09 11:29:42;;;;;;;3.45;2.17;;;;;;;8.81;91.83;101623.16;5119843;27;20038;-82
2022/02/09 11:32:31;;;;;;;2.15;2.05;;;;;;;8.84;91.04;101626.69;5126697;27;20050;-85
2022/02/09 11:41:04;;;;;;;1.52;1.45;;;;;;;9.09;88.28;101619.19;5113486;27;20843;-83
2022/02/09 11:43:36;;;;;;;1.95;1.48;;;;;;;9.12;87.74;101619.22;5124058;27;20065;-85
2022/02/09 11:46:26;;;;;;;1.48;1.48;;;;;;;9.21;87.50;101610.63;5132890;27;20096;-87
2022/02/09 11:49:14;;;;;;;1.52;1.42;;;;;;;9.49;85.00;101624.91;5108551;27;20089;-82
2022/02/09 11:52:00;;;;;;;1.38;1.27;;;;;;;9.63;84.27;101613.69;5134489;27;20051;-84
2022/02/09 11:54:52;;;;;;;1.90;0.90;;;;;;;9.75;83.30;101626.88;5102745;27;20545;-85
2022/02/09 11:58:22;;;;;;;0.90;0.90;;;;;;;9.74;81.72;101615.56;5112381;27;20066;-83
2022/02/09 12:01:24;;;;;;;0.98;0.93;;;;;;;9.70;80.97;101615.50;5127561;27;20146;-86
2022/02/09 12:09:42;;;;;;;1.87;1.67;;;;;;;9.35;83.80;101623.88;5101347;27;20050;-86
2022/02/09 12:12:21;;;;;;;0.90;0.90;;;;;;;9.25;84.83;101618.50;5126465;27;20281;-83
2022/02/09 12:15:00;;;;;;;1.20;1.13;;;;;;;9.25;85.60;101626.34;5100087;27;20081;-86
2022/02/09 12:17:50;;;;;;;1.30;0.93;;;;;;;9.26;85.58;101614.16;5100049;27;20038;-84
2022/02/09 12:20:25;;;;;;;1.48;0.88;;;;;;;9.27;85.68;101598.50;5098135;27;21082;-87
2022/02/09 12:23:08;;;;;;;1.25;1.15;;;;;;;9.27;86.25;101619.41;5095454;27;20054;-86
2022/02/09 12:25:47;;;;;;;1.33;1.33;;;;;;;9.24;86.94;101616.78;5092876;27;20055;-86
2022/02/09 12:28:23;;;;;;;1.00;1.00;;;;;;;9.27;87.04;101611.56;5091578;27;21295;-82
2022/02/09 12:31:15;;;;;;;1.40;1.20;;;;;;;9.21;87.68;101598.41;5097710;27;20038;-83
2022/02/09 12:33:54;;;;;;;1.50;1.48;;;;;;;9.09;88.87;101608.75;5092169;27;20047;-85
2022/02/09 12:36:33;;;;;;;2.03;1.90;;;;;;;8.98;90.90;101595.53;5095330;27;20054;-86
2022/02/09 12:39:04;;;;;;;2.20;1.70;;;;;;;8.83;92.62;101592.75;5101727;27;20059;-85
2022/02/09 12:41:45;;;;;;;2.42;2.08;;;;;;;8.75;93.72;101596.09;5094843;27;20055;-85
2022/02/09 12:44:23;;;;;;;4.40;2.00;;;;;;;8.83;94.23;101595.34;5075325;28;20159;-87
2022/02/09 12:46:52;;;;;;;2.08;1.98;;;;;;;8.98;90.50;101579.00;5071158;28;20047;-85
2022/02/09 12:49:23;;;;;;;1.60;1.50;;;;;;;9.15;88.92;101592.25;5120322;27;20052;-87
2022/02/09 12:51:59;;;;;;;1.30;1.30;;;;;;;9.22;87.53;101584.50;5084615;27;20092;-86
2022/02/09 12:57:50;;;;;;;1.75;1.67;;;;;;;9.48;86.15;101575.19;5108284;27;20962;-85
2022/02/09 13:00:34;;;;;;;1.45;1.45;;;;;;;9.69;84.62;101571.94;5087113;27;20048;-88
2022/02/09 13:03:12;;;;;;;3.25;1.40;;;;;;;9.59;82.90;101577.09;5090239;27;20043;-85
2022/02/09 13:06:00;;;;;;;1.45;1.33;;;;;;;9.67;82.48;101571.03;5088245;27;20035;-85
2022/02/09 13:08:30;;;;;;;1.95;1.45;;;;;;;9.79;81.51;101559.81;5077607;28;20066;-83
2022/02/09 13:11:18;;;;;;;1.17;1.17;;;;;;;9.87;79.77;101566.88;5079731;27;20217;-86
2022/02/09 13:13:52;;;;;;;2.17;1.70;;;;;;;9.90;80.57;101573.88;5093730;27;20115;-83
2022/02/09 13:22:37;;;;;;;1.83;1.73;;;;;;;10.08;78.90;101560.06;5115661;27;20127;-86
2022/02/09 13:25:41;;;;;;;1.45;1.08;;;;;;;10.15;77.83;101567.06;5102286;27;20434;-86
2022/02/09 14:11:09;;;;;;;1.98;1.83;;;;;;;9.64;81.44;101577.09;5088040;27;20171;-84
2022/02/09 14:55:20;;;;;;;2.88;2.00;;;;;;;9.29;84.95;101582.84;5101957;27;20054;-85
2022/02/09 14:58:01;;;;;;;2.47;1.60;;;;;;;9.30;84.90;101588.97;5094781;27;20051;-86
2022/02/09 15:00:28;;;;;;;2.47;1.38;;;;;;;9.30;84.61;101588.97;5088110;27;20051;-83
2022/02/09 15:03:03;;;;;;;2.28;1.85;;;;;;;9.26;84.39;101599.34;5111476;27;20055;-84
2022/02/09 15:08:30;;;;;;;2.10;1.45;;;;;;;9.31;84.78;101601.13;5105691;27;20047;-84
2022/02/09 15:11:08;;;;;;;2.20;2.00;;;;;;;9.30;84.80;101607.25;5113605;27;20044;-84
2022/02/09 15:13:43;;;;;;;3.15;2.63;;;;;;;9.25;85.37;101626.34;5102626;27;20426;-84
2022/02/09 15:16:18;;;;;;;1.63;1.52;;;;;;;9.22;85.21;101604.53;5092915;27;20047;-85
2022/02/09 15:19:07;;;;;;;1.50;1.42;;;;;;;9.22;85.54;101597.56;5112685;27;20478;-84
2022/02/09 15:24:22;;;;;;;;;;;;;;;9.13;85.99;101600.06;5101154;27;20058;-84
2022/02/09 15:26:51;;;;;;;1.83;1.63;;;;;;;9.08;86.09;101609.59;5094384;27;19934;-83
2022/02/09 15:29:18;;;;;;;1.92;1.83;;;;;;;9.03;87.03;101603.44;5113346;27;20047;-86
2022/02/09 15:31:51;;;;;;;2.00;1.90;;;;;;;9.02;87.11;101599.94;5114021;27;20542;-83
2022/02/09 15:34:25;;;;;;;4.90;1.90;;;;;;;8.99;86.52;101607.72;5108972;27;20767;-85
2022/02/09 15:37:02;;;;;;;2.22;2.05;;;;;;;8.96;87.02;101601.59;5092434;27;20057;-85
2022/02/09 15:39:33;;;;;;;2.88;1.90;;;;;;;8.95;87.28;101608.56;5074678;27;20055;-85
2022/02/09 15:42:08;;;;;;;2.15;1.98;;;;;;;8.93;87.64;101592.88;5090789;27;20039;-85
2022/02/09 16:09:39;;;;;;;2.17;1.98;;;;;;;8.77;88.60;101615.28;5100953;27;20067;-83
2022/02/09 16:23:39;;;;;;;2.80;2.50;;;;;;;8.77;88.70;101612.69;5089124;27;20039;-86
2022/02/09 16:33:12;;;;;;;3.13;1.92;;;;;;;8.71;89.24;101609.97;5072034;27;20059;-86
2022/02/09 16:37:49;;;;;;;1.85;1.75;;;;;;;8.67;90.10;101602.97;5079574;27;20051;-83
2022/02/09 16:48:57;;;;;;;3.28;3.05;;;;;;;8.64;90.32;101612.47;5049946;28;20210;-85
2022/02/09 16:51:24;;;;;;;3.35;2.88;;;;;;;8.64;90.11;101613.34;5024701;28;20891;-85
2022/02/09 17:19:00;;;;;;;4.53;3.97;;;;;;;8.53;90.04;101607.09;5101608;27;19970;-87
2022/02/09 17:21:29;;;;;;;5.40;4.93;;;;;;;8.51;90.27;101611.41;5104753;27;20040;-86
2022/02/09 17:24:01;;;;;;;4.55;4.07;;;;;;;8.49;89.88;101600.97;5091821;27;20051;-86
2022/02/09 17:26:30;;;;;;;5.40;4.95;;;;;;;8.46;90.22;101598.31;5059730;27;20176;-86
2022/02/09 17:29:01;;;;;;;4.75;4.45;;;;;;;8.40;90.92;101596.44;5086051;27;20047;-87
2022/02/09 17:31:34;;;;;;;6.40;5.80;;;;;;;8.33;90.74;101592.00;5079840;27;20139;-85
2022/02/09 17:34:42;;;;;;;5.43;5.00;;;;;;;8.30;91.26;101588.47;5102391;27;20135;-87
2022/02/09 17:37:33;;;;;;;5.43;4.93;;;;;;;8.28;91.33;101601.47;5087082;27;20097;-87
2022/02/09 17:54:12;;;;;;;5.28;4.78;;;;;;;8.29;91.08;101605.81;5071427;27;20050;-85
2022/02/09 17:56:48;;;;;;;6.47;4.72;;;;;;;8.30;91.12;101599.75;5083763;27;20039;-86
2022/02/09 17:59:25;;;;;;;5.70;4.60;;;;;;;8.35;90.50;101597.22;5112116;27;20031;-87
2022/02/09 18:01:53;;;;;;;6.00;5.13;;;;;;;8.33;90.78;101602.44;5091303;27;20048;-88
2022/02/09 18:04:22;;;;;;;4.47;4.05;;;;;;;8.33;90.44;101604.16;5080782;27;20047;-87
2022/02/09 18:07:04;;;;;;;5.13;4.50;;;;;;;8.33;90.34;101597.22;5092547;27;20178;-86
2022/02/09 18:09:38;;;;;;;5.80;4.88;;;;;;;8.33;90.68;101596.31;5091590;27;20124;-85
2022/02/09 18:12:16;;;;;;;7.10;4.95;;;;;;;8.32;90.69;101602.38;5097588;27;20038;-87
2022/02/09 18:15:13;;;;;;;6.82;5.03;;;;;;;8.30;90.34;101601.50;5090038;27;20826;-86
2022/02/09 18:29:03;;;;;;;4.75;3.97;;;;;;;8.34;89.20;101616.34;5044580;28;20049;-82
2022/02/09 18:31:39;;;;;;;3.85;3.38;;;;;;;8.32;89.55;101618.03;5021752;28;20049;-86
2022/02/09 18:34:33;;;;;;;6.10;3.95;;;;;;;8.31;89.31;101609.34;5059124;27;20051;-85
2022/02/09 18:42:56;;;;;;;5.60;4.60;;;;;;;8.30;89.47;101606.72;5069643;27;20661;-85
2022/02/09 18:45:34;;;;;;;5.28;4.72;;;;;;;8.29;89.42;101605.81;5117420;27;20070;-86
2022/02/09 18:48:15;;;;;;;5.25;4.75;;;;;;;8.29;89.76;101600.59;5109554;27;20050;-84
2022/02/09 19:04:26;;;;;;;7.25;4.28;;;;;;;8.32;89.10;101598.06;5086196;27;20106;-85
2022/02/09 19:15:22;;;;;;;7.13;5.75;;;;;;;8.30;89.57;101602.38;5113403;27;20022;-87
2022/02/09 19:17:53;;;;;;;7.15;5.20;;;;;;;8.31;89.73;101598.91;5092280;27;20058;-87
2022/02/09 19:20:39;;;;;;;6.93;5.45;;;;;;;8.28;89.93;101610.16;5125866;27;20044;-86
2022/02/09 19:45:53;;;;;;;10.03;8.10;;;;;;;8.32;89.76;101594.56;5096937;27;20055;-84
2022/02/09 19:48:25;;;;;;;9.98;7.70;;;;;;;8.31;90.02;101600.66;5104940;27;20292;-86
2022/02/09 19:51:10;;;;;;;9.85;7.40;;;;;;;8.30;89.86;101589.31;5124045;27;20043;-87
2022/02/09 19:53:56;;;;;;;13.00;8.55;;;;;;;8.33;89.85;101596.31;4411001;27;10000792;-86
2022/02/09 19:56:25;;;;;;;9.10;7.47;;;;;;;8.36;89.42;101596.38;5114247;27;20106;-86
2022/02/09 19:58:56;;;;;;;9.50;8.07;;;;;;;8.35;89.43;101605.94;5110019;27;20039;-87
2022/02/09 20:01:24;;;;;;;14.70;9.27;;;;;;;8.37;89.70;101603.34;5117649;27;20031;-87
2022/02/09 20:03:52;;;;;;;13.43;9.35;;;;;;;8.36;89.54;101602.47;5122779;27;20027;-86
2022/02/09 20:06:40;;;;;;;10.27;8.10;;;;;;;8.35;89.58;101598.09;5122033;27;20111;-86
2022/02/09 20:09:09;;;;;;;14.63;9.25;;;;;;;8.33;89.75;101594.59;5122708;27;20058;-86
2022/02/09 20:11:42;;;;;;;10.93;9.10;;;;;;;8.33;90.12;101592.00;5135621;27;20050;-85
2022/02/09 20:14:14;;;;;;;14.07;10.57;;;;;;;8.30;90.22;101596.28;5125848;27;20056;-86
2022/02/09 20:16:47;;;;;;;11.73;9.25;;;;;;;8.25;90.97;101596.19;5119862;27;20048;-86
2022/02/09 20:19:17;;;;;;;14.35;10.40;;;;;;;8.22;91.23;101590.94;5121548;27;20043;-87
2022/02/09 20:21:51;;;;;;;14.00;10.75;;;;;;;8.21;91.09;101595.28;5108954;27;20055;-85
2022/02/09 20:24:25;;;;;;;12.50;10.40;;;;;;;8.19;91.27;101588.28;5094451;27;20036;-87
2022/02/09 20:26:54;;;;;;;13.30;9.93;;;;;;;8.22;91.68;101594.41;5103930;27;20111;-87
2022/02/09 20:29:27;;;;;;;15.20;10.35;;;;;;;8.22;91.45;101585.72;5108332;27;20039;-86
2022/02/09 20:32:11;;;;;;;12.45;10.15;;;;;;;8.23;91.34;101593.56;5111884;27;20035;-87
2022/02/09 20:34:51;;;;;;;13.55;10.25;;;;;;;8.22;91.42;101581.38;5098640;27;20047;-86
2022/02/09 20:37:29;;;;;;;13.73;9.05;;;;;;;8.23;91.50;101592.69;5117450;27;20055;-86
2022/02/09 20:42:50;;;;;;;13.65;9.95;;;;;;;8.22;91.96;101586.59;5112433;27;20869;-88
2022/02/09 20:45:31;;;;;;;17.20;11.73;;;;;;;8.19;91.96;101586.56;5106610;27;20047;-86
2022/02/09 20:51:13;;;;;;;13.30;10.10;;;;;;;8.22;91.84;101589.19;5104861;28;20142;-88
2022/02/09 21:08:28;;;;;;;14.60;10.93;;;;;;;8.19;92.49;101581.34;5079311;27;20495;-87
2022/02/09 21:11:12;;;;;;;12.65;10.13;;;;;;;8.22;92.44;101586.59;5114624;27;20054;-87
2022/02/09 21:16:41;;;;;;;14.55;10.93;;;;;;;8.18;92.67;101581.31;5121970;27;20059;-85
2022/02/09 21:19:38;;;;;;;16.33;11.15;;;;;;;8.13;92.79;101576.00;5114293;27;20047;-87
2022/02/09 21:25:23;;;;;;;14.40;10.77;;;;;;;8.17;92.72;101577.81;5039074;27;20826;-88
2022/02/09 21:42:43;;;;;;;13.45;9.93;;;;;;;8.19;92.71;101576.13;5112903;27;20035;-86
2022/02/09 21:56:07;;;;;;;17.27;10.90;;;;;;;8.17;92.72;101574.34;5110491;27;20036;-85
2022/02/09 21:58:40;;;;;;;14.40;10.30;;;;;;;8.19;92.44;101577.88;5107406;27;20906;-86
2022/02/09 22:07:05;;;;;;;;;;;;;;;8.17;92.89;101571.72;5096817;27;20039;-85
2022/02/09 22:21:08;;;;;;;12.88;10.30;;;;;;;8.07;93.67;101553.34;5101481;27;20400;-86
2022/02/09 22:24:25;;;;;;;17.33;11.13;;;;;;;8.04;93.56;101552.41;5109940;27;20926;-85
2022/02/09 22:27:08;;;;;;;16.23;12.18;;;;;;;8.03;93.51;101550.63;5107274;27;20046;-85
2022/02/09 22:49:16;;;;;;;15.27;11.10;;;;;;;8.06;94.09;101532.47;5094302;27;20051;-87
2022/02/09 22:54:33;;;;;;;17.20;11.25;;;;;;;8.08;94.05;101529.03;5078137;27;20044;-86
2022/02/09 22:56:59;;;;;;;19.73;13.45;;;;;;;8.09;94.52;101529.88;5083827;27;20054;-87
2022/02/09 22:59:31;;;;;;;22.33;14.27;;;;;;;8.10;94.20;101526.44;5078897;27;20133;-87
2022/02/09 23:02:00;;;;;;;17.43;12.87;;;;;;;8.10;94.63;101522.06;5084090;27;20047;-87
2022/02/09 23:04:43;;;;;;;20.30;13.15;;;;;;;8.11;94.31;101516.00;5101341;27;20048;-87
2022/02/09 23:07:26;;;;;;;18.23;12.13;;;;;;;8.12;94.10;101511.66;5111611;27;20050;-86